Time;durP1;ratioP1;P1;durP2;ratioP2;P2;SDS_P1;SDS_P2;PMS_P1;PMS_P2;Temp;Humidity;BMP_temperature;BMP_pressure;BME280_temperature;BME280_humidity;BME280_pressure;Samples;Min_cycle;Max_cycle;Signal;HPM_P1;HPM_P2
2022/08/04 00:01:07;;;;;;;3.33;3.03;;;;;;;21.50;nan;100473.09;5010760;28;20050;-67
2022/08/04 00:03:42;;;;;;;3.28;2.60;;;;;;;21.51;nan;100476.56;5002451;28;20033;-66
2022/08/04 00:06:12;;;;;;;4.05;3.10;;;;;;;21.47;nan;100476.34;5009698;28;20026;-67
2022/08/04 00:08:46;;;;;;;5.32;3.17;;;;;;;21.43;nan;100478.03;5010957;28;20084;-69
2022/08/04 00:11:18;;;;;;;3.65;2.92;;;;;;;21.48;nan;100477.13;5009416;28;20131;-69
2022/08/04 00:13:54;;;;;;;6.22;3.20;;;;;;;21.43;nan;100465.44;5007614;28;20026;-70
2022/08/04 00:16:22;;;;;;;3.28;2.97;;;;;;;21.41;nan;100472.97;5007999;28;20049;-69
2022/08/04 00:18:56;;;;;;;5.78;2.72;;;;;;;21.42;nan;100461.16;5009776;28;20034;-69
2022/08/04 00:21:24;;;;;;;4.65;2.90;;;;;;;21.41;nan;100486.38;5008221;28;20137;-70
2022/08/04 00:23:51;;;;;;;4.57;2.85;;;;;;;21.38;nan;100459.31;5007004;28;20034;-69
2022/08/04 00:26:17;;;;;;;5.40;3.10;;;;;;;21.30;nan;100465.38;5008829;28;20065;-69
2022/08/04 00:28:44;;;;;;;3.92;3.13;;;;;;;21.27;nan;100464.09;5009294;28;20058;-70
2022/08/04 00:31:10;;;;;;;8.20;3.15;;;;;;;21.15;nan;100472.59;4998360;28;20515;-69
2022/08/04 00:33:39;;;;;;;4.28;3.13;;;;;;;21.15;nan;100536.06;5004192;28;20486;-70
2022/08/04 00:36:05;;;;;;;;;;;;;;;21.11;nan;100468.91;5010035;28;20399;-70
2022/08/04 00:38:31;;;;;;;3.95;3.22;;;;;;;21.07;nan;100486.66;5007938;28;19999;-69
2022/08/04 00:41:25;;;;;;;9.00;3.67;;;;;;;21.03;nan;100483.75;5009583;28;20038;-70
2022/08/04 00:44:16;;;;;;;3.45;3.03;;;;;;;20.95;nan;100489.78;5021671;28;20527;-69
2022/08/04 00:47:01;;;;;;;6.88;3.35;;;;;;;;;;5007988;28;20061;-71
2022/08/04 00:49:49;;;;;;;4.18;3.28;;;;;;;20.82;nan;100474.47;5009513;28;20038;-69
2022/08/04 00:52:45;;;;;;;3.22;2.90;;;;;;;20.74;nan;100489.31;5010181;28;20041;-67
2022/08/04 00:55:13;;;;;;;3.88;3.28;;;;;;;20.71;nan;100489.06;5002996;28;20035;-67
2022/08/04 00:57:58;;;;;;;4.60;3.35;;;;;;;20.68;nan;100462.91;5006247;28;20045;-70
2022/08/04 01:00:24;;;;;;;5.50;3.60;;;;;;;20.62;nan;100459.53;5008398;28;20129;-70
2022/08/04 01:03:17;;;;;;;8.25;3.58;;;;;;;20.64;nan;100494.00;5008234;28;20030;-70
2022/08/04 01:05:54;;;;;;;6.80;3.72;;;;;;;20.60;nan;100467.81;5019998;28;20038;-70
2022/08/04 01:08:23;;;;;;;5.65;3.30;;;;;;;20.62;nan;100490.84;5008592;28;20705;-70
2022/08/04 01:10:58;;;;;;;8.27;3.43;;;;;;;20.61;nan;100484.66;5007915;28;20034;-70
2022/08/04 01:13:41;;;;;;;4.15;3.55;;;;;;;20.59;nan;100482.31;5011397;28;20092;-71
2022/08/04 01:16:12;;;;;;;6.75;3.65;;;;;;;20.57;nan;100484.47;5009068;28;20057;-70
2022/08/04 01:18:52;;;;;;;5.13;3.25;;;;;;;20.52;nan;100481.84;5006011;28;20034;-69
2022/08/04 01:21:56;;;;;;;5.20;3.53;;;;;;;20.50;nan;100477.88;5009500;28;20093;-69
2022/08/04 01:24:43;;;;;;;5.03;3.20;;;;;;;20.46;nan;100487.53;4988493;28;20038;-70
2022/08/04 01:27:17;;;;;;;5.05;3.22;;;;;;;20.43;nan;100488.91;4987550;28;20057;-69
2022/08/04 01:29:54;;;;;;;7.53;3.28;;;;;;;20.37;nan;100469.44;4982263;28;20034;-70
2022/08/04 01:32:25;;;;;;;5.72;3.53;;;;;;;20.34;nan;100477.25;4988439;28;20030;-70
2022/08/04 01:34:55;;;;;;;6.32;3.35;;;;;;;20.31;nan;100494.69;4987489;28;20089;-70
2022/08/04 01:37:58;;;;;;;6.57;3.45;;;;;;;20.28;nan;100497.13;4984546;28;20149;-69
2022/08/04 01:40:25;;;;;;;5.35;3.42;;;;;;;20.21;nan;100480.63;4988472;28;20070;-69
2022/08/04 01:42:52;;;;;;;4.30;3.38;;;;;;;20.14;nan;100470.31;4988716;28;20393;-70
2022/08/04 01:45:18;;;;;;;6.55;3.72;;;;;;;20.14;nan;100470.31;4983448;28;20039;-70
2022/08/04 01:47:51;;;;;;;7.75;3.90;;;;;;;20.16;nan;100498.34;4990270;28;20034;-69
2022/08/04 01:50:18;;;;;;;5.28;3.28;;;;;;;20.08;nan;100507.00;4986987;28;20039;-69
2022/08/04 01:52:44;;;;;;;4.20;3.60;;;;;;;20.11;nan;100484.25;4982351;28;20117;-71
2022/08/04 01:55:13;;;;;;;4.10;3.25;;;;;;;20.09;nan;100489.09;4986695;28;20070;-70
2022/08/04 01:57:42;;;;;;;8.68;3.70;;;;;;;20.08;nan;100471.44;4970456;28;20084;-70
2022/08/04 02:00:08;;;;;;;;;;;;;;;20.08;nan;100490.16;4997684;28;20120;-70
2022/08/04 02:02:33;;;;;;;5.38;3.75;;;;;;;20.02;nan;100429.84;5007085;28;20360;-70
2022/08/04 02:04:59;;;;;;;6.95;3.80;;;;;;;19.96;nan;100478.00;5011718;28;20080;-70
2022/08/04 02:07:49;;;;;;;5.18;3.95;;;;;;;19.97;nan;100468.13;5010500;28;20121;-69
2022/08/04 02:10:34;;;;;;;4.50;3.90;;;;;;;19.93;nan;100488.47;5008469;28;20036;-70
2022/08/04 02:13:11;;;;;;;7.43;3.83;;;;;;;19.78;nan;100489.44;5010404;28;20045;-71
2022/08/04 02:16:07;;;;;;;5.63;4.30;;;;;;;19.71;nan;100489.78;5013388;28;20385;-70
2022/08/04 02:18:54;;;;;;;4.78;3.85;;;;;;;19.65;nan;100504.22;5008476;28;20601;-71
2022/08/04 02:21:20;;;;;;;6.65;4.15;;;;;;;19.59;nan;100475.19;5007572;28;20026;-70
2022/08/04 02:23:54;;;;;;;5.53;4.35;;;;;;;19.51;nan;100492.63;5012524;28;20076;-71
2022/08/04 02:26:20;;;;;;;5.72;4.32;;;;;;;;;;5010574;28;20408;-69
2022/08/04 02:28:52;;;;;;;5.13;3.80;;;;;;;19.43;nan;100488.69;5009505;28;20038;-71
2022/08/04 02:31:36;;;;;;;7.78;4.15;;;;;;;19.43;nan;100482.56;5010564;28;20501;-70
2022/08/04 02:34:07;;;;;;;6.70;4.30;;;;;;;19.39;nan;100487.66;5008390;28;20489;-69
2022/08/04 02:36:38;;;;;;;6.53;4.65;;;;;;;19.36;nan;100471.41;5010804;28;20391;-68
2022/08/04 02:39:04;;;;;;;7.07;4.00;;;;;;;;;;5009537;28;20084;-67
2022/08/04 02:41:31;;;;;;;5.00;4.43;;;;;;;19.27;nan;100528.06;5009835;28;20041;-68
2022/08/04 02:44:00;;;;;;;4.68;3.97;;;;;;;;;;5009601;28;20038;-70
2022/08/04 02:46:27;;;;;;;5.72;4.32;;;;;;;19.26;nan;100482.97;5010988;28;20033;-71
2022/08/04 02:48:54;;;;;;;8.75;4.65;;;;;;;19.21;nan;100496.38;5003002;28;20034;-71
2022/08/04 02:51:32;;;;;;;5.57;4.35;;;;;;;19.18;nan;100487.06;5005575;28;20065;-71
2022/08/04 02:53:59;;;;;;;6.57;4.80;;;;;;;19.17;nan;100480.09;5006591;28;20030;-70
2022/08/04 02:56:28;;;;;;;7.07;4.45;;;;;;;19.16;nan;100477.75;5010861;28;20322;-71
2022/08/04 02:59:05;;;;;;;8.95;4.65;;;;;;;19.16;nan;100488.41;5006459;28;20085;-69
2022/08/04 03:01:31;;;;;;;6.63;4.40;;;;;;;19.09;nan;100484.19;5008640;28;20381;-70
2022/08/04 03:04:09;;;;;;;5.50;4.38;;;;;;;19.07;nan;100497.00;5010725;28;20026;-70
2022/08/04 03:07:06;;;;;;;8.13;4.82;;;;;;;19.02;nan;100481.03;5009912;28;20392;-72
2022/08/04 03:09:34;;;;;;;13.95;4.88;;;;;;;;;;4996096;28;20062;-70
2022/08/04 03:12:21;;;;;;;10.85;5.30;;;;;;;18.98;nan;100489.88;5007213;28;20048;-71
2022/08/04 03:14:55;;;;;;;10.55;5.70;;;;;;;18.95;nan;100498.44;5011923;28;20137;-71
2022/08/04 03:17:52;;;;;;;12.38;5.78;;;;;;;18.92;nan;100508.59;5006287;28;20070;-70
2022/08/04 03:20:33;;;;;;;10.57;5.63;;;;;;;;;;4984961;28;20036;-71
2022/08/04 03:23:18;;;;;;;14.05;6.50;;;;;;;18.83;nan;100480.13;4990053;28;20026;-70
2022/08/04 03:26:21;;;;;;;11.93;6.40;;;;;;;18.74;nan;100487.88;4987405;28;20117;-70
2022/08/04 03:29:14;;;;;;;12.75;6.28;;;;;;;18.72;nan;100447.34;4986800;28;20125;-70
2022/08/04 03:32:16;;;;;;;11.38;6.40;;;;;;;18.73;nan;100496.16;4985800;28;20118;-70
2022/08/04 03:35:11;;;;;;;8.98;6.32;;;;;;;18.61;nan;100501.84;4982807;28;20039;-69
2022/08/04 03:38:13;;;;;;;11.32;6.68;;;;;;;18.55;nan;100468.25;4982952;28;20189;-70
2022/08/04 03:41:10;;;;;;;8.52;6.30;;;;;;;18.47;nan;100501.66;4986739;28;20085;-70
2022/08/04 03:43:50;;;;;;;17.27;7.05;;;;;;;18.50;nan;100488.53;4971513;28;20042;-70
2022/08/04 03:46:37;;;;;;;13.63;6.78;;;;;;;18.47;nan;100497.09;4985746;28;20041;-69
2022/08/04 03:49:26;;;;;;;11.23;6.90;;;;;;;18.48;nan;100505.88;4983286;28;20030;-69
2022/08/04 03:55:29;;;;;;;13.88;6.45;;;;;;;18.50;nan;100509.09;4984241;28;20392;-70
2022/08/04 03:58:38;;;;;;;11.13;6.40;;;;;;;18.54;nan;100509.34;5007589;28;20037;-67
2022/08/04 04:01:28;;;;;;;14.68;7.00;;;;;;;18.57;nan;100506.13;5002543;28;20109;-68
2022/08/04 04:04:15;;;;;;;17.48;6.65;;;;;;;18.61;nan;100521.31;5007034;28;20038;-65
2022/08/04 04:06:40;;;;;;;12.25;6.90;;;;;;;18.58;nan;100510.38;5008553;28;20500;-68
2022/08/04 04:09:11;;;;;;;10.93;6.47;;;;;;;18.60;nan;100518.91;5006867;28;20040;-67
2022/08/04 04:12:09;;;;;;;8.40;6.65;;;;;;;18.64;nan;100499.41;5006647;28;20065;-68
2022/08/04 04:14:47;;;;;;;12.95;7.53;;;;;;;18.67;nan;100458.03;5004061;28;20504;-69
2022/08/04 04:17:31;;;;;;;15.60;7.00;;;;;;;18.70;nan;100511.66;5010397;28;20026;-67
2022/08/04 04:20:16;;;;;;;11.25;7.13;;;;;;;18.74;nan;100513.75;5010621;28;20034;-68
2022/08/04 04:23:00;;;;;;;13.77;7.18;;;;;;;18.77;nan;100516.72;5007982;28;20038;-67
2022/08/04 04:25:35;;;;;;;13.45;6.70;;;;;;;18.84;nan;100519.03;5020900;28;20046;-69
2022/08/04 04:28:01;;;;;;;12.40;6.40;;;;;;;18.89;nan;100527.84;5010026;28;20228;-70
2022/08/04 04:30:51;;;;;;;13.93;6.35;;;;;;;18.95;nan;100506.44;5009291;28;20133;-71
2022/08/04 04:33:25;;;;;;;12.88;6.38;;;;;;;19.00;nan;100527.75;5002115;28;20477;-68
2022/08/04 04:36:23;;;;;;;9.75;6.25;;;;;;;19.06;nan;100537.34;5009726;28;20117;-70
2022/08/04 04:39:02;;;;;;;8.40;5.53;;;;;;;19.14;nan;100520.72;5006651;28;20037;-71
2022/08/04 04:41:46;;;;;;;14.73;5.88;;;;;;;19.20;nan;100527.63;5010597;28;20080;-70
2022/08/04 04:44:22;;;;;;;12.13;6.60;;;;;;;19.27;nan;100520.06;5008119;28;20061;-69
2022/08/04 04:47:07;;;;;;;10.07;5.97;;;;;;;19.31;nan;100533.66;5005960;28;20035;-71
2022/08/04 04:49:55;;;;;;;14.27;6.25;;;;;;;19.32;nan;100517.38;5008937;28;20480;-71
2022/08/04 04:52:29;;;;;;;11.37;6.43;;;;;;;19.39;nan;100495.66;5009823;28;20503;-71
2022/08/04 04:55:13;;;;;;;9.82;5.63;;;;;;;19.45;nan;100528.47;5010411;28;20282;-71
2022/08/04 04:57:40;;;;;;;8.70;5.60;;;;;;;;;;5017375;28;20041;-71
2022/08/04 05:00:09;;;;;;;12.93;6.22;;;;;;;19.60;nan;100533.66;5012940;28;20060;-71
2022/08/04 05:03:12;;;;;;;10.48;5.88;;;;;;;19.71;nan;100542.41;5011502;28;20034;-70
2022/08/04 05:05:40;;;;;;;9.60;6.32;;;;;;;19.80;nan;100545.25;5025157;28;20034;-71
2022/08/04 05:08:08;;;;;;;11.73;5.93;;;;;;;19.90;nan;100545.16;5014662;28;20152;-71
2022/08/04 05:10:56;;;;;;;12.85;5.97;;;;;;;20.00;nan;100562.97;5010010;28;20220;-71
2022/08/04 05:13:40;;;;;;;8.60;5.35;;;;;;;20.08;nan;100571.16;5005072;28;20141;-72
2022/08/04 05:16:17;;;;;;;13.30;6.20;;;;;;;20.17;nan;100552.63;5012536;28;20092;-71
2022/08/04 05:19:02;;;;;;;8.60;6.13;;;;;;;20.18;nan;100498.88;5009006;28;20081;-71
2022/08/04 05:21:43;;;;;;;12.05;6.30;;;;;;;20.34;nan;100557.50;5011287;28;20088;-71
2022/08/04 05:24:12;;;;;;;10.15;5.88;;;;;;;20.40;nan;100551.81;5007860;28;20076;-71
2022/08/04 05:26:45;;;;;;;12.60;6.50;;;;;;;20.42;nan;100540.81;5008377;28;20066;-73
2022/08/04 05:29:15;;;;;;;14.63;6.28;;;;;;;;;;5010997;28;20038;-71
2022/08/04 05:31:48;;;;;;;20.00;6.32;;;;;;;20.60;nan;100563.34;5013566;28;20038;-69
2022/08/04 05:34:20;;;;;;;22.60;6.15;;;;;;;20.69;nan;100604.44;5010630;28;20072;-69
2022/08/04 05:36:49;;;;;;;18.70;6.00;;;;;;;20.77;nan;100550.28;5011728;28;20033;-68
2022/08/04 05:39:20;;;;;;;15.93;6.78;;;;;;;20.88;nan;100545.59;5010263;28;20061;-70
2022/08/04 05:41:48;;;;;;;18.17;6.20;;;;;;;20.97;nan;100561.75;5016019;28;20036;-69
2022/08/04 05:44:18;;;;;;;21.88;5.90;;;;;;;21.01;nan;100573.50;5012062;28;20029;-70
2022/08/04 05:46:48;;;;;;;23.25;5.95;;;;;;;21.12;nan;100566.09;5011393;28;20041;-72
2022/08/04 05:49:15;;;;;;;17.58;6.20;;;;;;;21.19;nan;100559.28;5013163;28;20034;-71
2022/08/04 05:51:42;;;;;;;21.25;6.90;;;;;;;21.30;nan;100613.50;5004252;28;20049;-71
2022/08/04 05:54:09;;;;;;;21.02;6.25;;;;;;;21.40;nan;100561.66;5005891;28;20034;-71
2022/08/04 05:56:35;;;;;;;11.10;5.47;;;;;;;;;;5008771;28;20041;-71
2022/08/04 05:59:02;;;;;;;20.95;6.30;;;;;;;21.66;nan;100581.56;5007086;28;20048;-70
2022/08/04 06:01:29;;;;;;;19.20;6.32;;;;;;;21.75;nan;100572.88;5008404;28;20124;-70
2022/08/04 06:03:57;;;;;;;9.07;5.20;;;;;;;21.85;nan;100553.91;5007461;28;20038;-71
2022/08/04 06:06:24;;;;;;;10.23;4.85;;;;;;;21.97;nan;100569.50;5009043;28;20058;-70
2022/08/04 06:08:50;;;;;;;9.50;4.95;;;;;;;22.06;nan;100587.28;5011393;28;20130;-69
2022/08/04 06:11:18;;;;;;;8.90;4.57;;;;;;;22.22;nan;100536.06;5009835;28;20125;-70
2022/08/04 06:13:50;;;;;;;8.10;4.75;;;;;;;22.40;nan;100582.66;5006137;28;20037;-71
2022/08/04 06:16:19;;;;;;;7.85;4.60;;;;;;;22.46;nan;100570.75;5007525;28;20025;-70
2022/08/04 06:18:49;;;;;;;6.88;4.70;;;;;;;22.58;nan;100580.94;5007362;28;20458;-70
2022/08/04 06:21:19;;;;;;;7.60;4.97;;;;;;;22.66;nan;100578.34;5011553;28;20033;-70
2022/08/04 06:23:46;;;;;;;5.20;4.30;;;;;;;22.80;nan;100585.59;5006120;28;20038;-68
2022/08/04 06:26:18;;;;;;;8.27;4.40;;;;;;;22.88;nan;100635.88;5007310;28;20038;-69
2022/08/04 06:28:46;;;;;;;12.05;4.15;;;;;;;22.93;nan;100590.88;5024531;28;20029;-70
2022/08/04 06:31:15;;;;;;;8.07;4.03;;;;;;;23.08;nan;100583.63;5008137;28;20076;-69
2022/08/04 06:33:40;;;;;;;9.13;4.23;;;;;;;23.27;nan;100583.44;5011498;28;20271;-69
2022/08/04 06:36:07;;;;;;;8.70;3.75;;;;;;;23.39;nan;100572.94;5009223;28;20038;-70
2022/08/04 06:38:35;;;;;;;9.75;4.22;;;;;;;23.62;nan;100570.22;5009285;28;20036;-70
2022/08/04 06:41:02;;;;;;;8.65;4.40;;;;;;;23.77;nan;100584.06;5008308;28;20040;-68
2022/08/04 06:43:28;;;;;;;7.65;3.60;;;;;;;23.89;nan;100582.72;5007228;28;20033;-69
2022/08/04 06:45:56;;;;;;;4.70;3.80;;;;;;;23.87;nan;100564.22;5008803;28;20060;-70
2022/08/04 06:48:23;;;;;;;9.75;3.97;;;;;;;24.04;nan;100635.31;5007679;28;20113;-69
2022/08/04 06:50:50;;;;;;;8.13;3.80;;;;;;;24.15;nan;100589.00;5008606;28;20061;-70
2022/08/04 06:53:16;;;;;;;6.93;3.67;;;;;;;24.28;nan;100576.53;5012658;28;20034;-70
2022/08/04 06:55:45;;;;;;;4.18;3.28;;;;;;;24.39;nan;100653.19;5007434;28;20044;-70
2022/08/04 06:58:11;;;;;;;6.85;3.00;;;;;;;24.57;nan;100573.28;5008113;28;20484;-71
2022/08/04 07:00:39;;;;;;;10.30;3.53;;;;;;;24.65;nan;100622.09;5009006;28;20108;-70
2022/08/04 07:03:06;;;;;;;6.63;3.00;;;;;;;24.82;nan;100585.19;5010237;28;20421;-70
2022/08/04 07:05:33;;;;;;;8.65;3.15;;;;;;;24.92;nan;100572.53;5011154;28;20030;-70
2022/08/04 07:07:59;;;;;;;4.72;3.10;;;;;;;25.03;nan;100573.78;5011396;28;20069;-70
2022/08/04 07:10:29;;;;;;;5.07;2.97;;;;;;;25.17;nan;100584.41;5003178;28;20034;-72
2022/08/04 07:12:56;;;;;;;5.40;2.80;;;;;;;25.26;nan;100598.69;5007971;28;20103;-71
2022/08/04 07:15:23;;;;;;;3.97;2.60;;;;;;;25.31;nan;100632.75;5003439;28;20033;-71
2022/08/04 07:17:50;;;;;;;3.80;2.90;;;;;;;25.48;nan;100584.22;5010616;28;20058;-71
2022/08/04 07:20:18;;;;;;;4.63;2.85;;;;;;;25.58;nan;100581.19;5002071;28;20030;-71
2022/08/04 07:22:45;;;;;;;5.90;3.17;;;;;;;25.77;nan;100574.63;5005621;28;20038;-70
2022/08/04 07:25:13;;;;;;;5.25;3.10;;;;;;;25.88;nan;100575.88;5006532;28;20115;-70
2022/08/04 07:27:39;;;;;;;4.63;2.97;;;;;;;26.05;nan;100572.28;5006829;28;20042;-71
2022/08/04 07:30:05;;;;;;;6.45;3.25;;;;;;;26.04;nan;100576.91;5008474;28;20100;-70
2022/08/04 07:32:31;;;;;;;5.32;2.92;;;;;;;26.14;nan;100589.25;5007327;28;20038;-71
2022/08/04 07:34:58;;;;;;;4.97;2.85;;;;;;;26.09;nan;100521.97;5006949;28;20126;-69
2022/08/04 07:37:24;;;;;;;3.03;2.58;;;;;;;26.28;nan;100595.19;5007643;28;20034;-69
2022/08/04 07:39:49;;;;;;;2.90;2.60;;;;;;;26.43;nan;100569.53;5008995;28;20031;-68
2022/08/04 07:42:18;;;;;;;5.78;2.72;;;;;;;26.62;nan;100571.81;5012904;28;20030;-69
2022/08/04 07:44:44;;;;;;;5.82;2.58;;;;;;;26.70;nan;100572.91;5010768;28;20030;-69
2022/08/04 07:47:10;;;;;;;3.42;2.35;;;;;;;26.73;nan;100556.81;5007069;28;20042;-69
2022/08/04 07:49:36;;;;;;;4.95;2.50;;;;;;;26.94;nan;100564.91;5008799;28;20369;-71
2022/08/04 07:52:02;;;;;;;5.03;2.63;;;;;;;26.98;nan;100578.53;5005634;28;20142;-71
2022/08/04 07:54:28;;;;;;;4.05;2.78;;;;;;;26.97;nan;100576.97;5005370;28;20030;-72
2022/08/04 07:56:54;;;;;;;5.80;2.50;;;;;;;27.04;nan;100566.41;5007523;28;20063;-71
2022/08/04 07:59:20;;;;;;;2.95;2.40;;;;;;;27.14;nan;100592.25;5010096;28;20117;-71
2022/08/04 08:01:46;;;;;;;10.95;2.70;;;;;;;27.20;nan;100590.97;5012012;28;20452;-71
2022/08/04 08:04:12;;;;;;;3.42;2.60;;;;;;;;;;5009986;28;20022;-71
2022/08/04 08:06:39;;;;;;;6.97;2.58;;;;;;;27.31;nan;100586.69;5007797;28;20365;-70
2022/08/04 08:09:21;;;;;;;6.53;3.25;;;;;;;27.40;nan;100585.84;5008353;28;20068;-72
2022/08/04 08:11:49;;;;;;;5.07;2.55;;;;;;;27.47;nan;100573.34;5005312;28;20030;-70
2022/08/04 08:14:16;;;;;;;5.68;2.58;;;;;;;27.61;nan;100629.84;5007190;28;20030;-70
2022/08/04 08:16:42;;;;;;;6.60;2.20;;;;;;;27.71;nan;100594.22;5006607;28;20030;-72
2022/08/04 08:19:11;;;;;;;3.03;2.17;;;;;;;27.81;nan;100576.75;5009585;28;20037;-66
2022/08/04 08:21:37;;;;;;;3.95;2.30;;;;;;;27.87;nan;100589.00;5008301;28;20103;-68
2022/08/04 08:24:04;;;;;;;9.88;2.63;;;;;;;27.97;nan;100566.09;5007439;28;20026;-68
2022/08/04 08:26:30;;;;;;;5.22;2.88;;;;;;;27.99;nan;100596.31;5004478;28;20053;-71
2022/08/04 08:28:56;;;;;;;10.80;2.97;;;;;;;28.06;nan;100580.28;5005966;28;20038;-70
2022/08/04 08:31:21;;;;;;;11.43;3.05;;;;;;;28.13;nan;100588.63;5011330;28;20076;-71
2022/08/04 08:33:50;;;;;;;8.20;2.55;;;;;;;28.27;nan;100606.47;5009176;28;20030;-73
2022/08/04 08:36:24;;;;;;;2.83;2.10;;;;;;;28.35;nan;100584.69;5010696;28;20056;-70
2022/08/04 08:39:21;;;;;;;2.75;2.15;;;;;;;28.40;nan;100589.88;5007301;28;20267;-71
2022/08/04 08:42:07;;;;;;;4.47;2.22;;;;;;;28.50;nan;100604.91;5012473;28;20026;-68
2022/08/04 08:45:00;;;;;;;2.80;2.05;;;;;;;28.60;nan;100611.75;5004160;28;20488;-69
2022/08/04 08:47:47;;;;;;;3.17;2.05;;;;;;;28.74;nan;100600.56;5010258;28;20124;-66
2022/08/04 08:50:40;;;;;;;2.97;2.10;;;;;;;28.77;nan;100614.19;5023685;28;20026;-66
2022/08/04 08:53:33;;;;;;;3.63;2.10;;;;;;;28.87;nan;100566.84;5017571;28;20052;-71
2022/08/04 08:56:20;;;;;;;6.10;2.22;;;;;;;29.00;nan;100581.94;5005855;28;20091;-70
2022/08/04 08:59:04;;;;;;;4.65;2.22;;;;;;;29.00;nan;100606.34;5004706;28;20033;-69
2022/08/04 09:01:51;;;;;;;3.22;2.20;;;;;;;29.03;nan;100602.16;5018373;28;20093;-66
2022/08/04 09:04:35;;;;;;;4.10;2.35;;;;;;;29.07;nan;100583.28;5002318;28;20030;-69
2022/08/04 09:07:19;;;;;;;3.20;2.20;;;;;;;29.15;nan;100579.66;5005668;28;20121;-72
2022/08/04 09:09:47;;;;;;;3.75;2.22;;;;;;;29.23;nan;100584.91;5008757;28;20448;-70
2022/08/04 09:12:24;;;;;;;2.78;2.45;;;;;;;29.39;nan;100589.59;5018061;28;20050;-72
2022/08/04 09:14:57;;;;;;;4.53;2.03;;;;;;;29.48;nan;100587.50;5003679;28;20038;-72
2022/08/04 09:17:41;;;;;;;3.92;2.17;;;;;;;29.71;nan;100586.91;5006086;28;20516;-71
2022/08/04 09:20:17;;;;;;;2.50;2.30;;;;;;;29.81;nan;100589.09;5000249;28;20088;-69
2022/08/04 09:22:49;;;;;;;4.22;2.40;;;;;;;29.87;nan;100582.28;5005432;28;20565;-68
2022/08/04 09:25:25;;;;;;;2.95;2.63;;;;;;;29.89;nan;100582.72;5004678;28;20120;-71
2022/08/04 09:27:54;;;;;;;4.85;2.53;;;;;;;29.94;nan;100592.53;5008575;28;20034;-71
2022/08/04 09:30:28;;;;;;;4.80;2.58;;;;;;;30.03;nan;100588.50;5008443;28;20030;-71
2022/08/04 09:33:16;;;;;;;4.75;2.58;;;;;;;30.09;nan;100594.44;5009392;28;20026;-71
2022/08/04 09:35:50;;;;;;;4.45;2.80;;;;;;;30.13;nan;100560.00;5011214;28;20038;-70
2022/08/04 09:38:41;;;;;;;4.15;2.88;;;;;;;30.20;nan;100543.09;5011079;28;20052;-70
2022/08/04 09:41:09;;;;;;;2.45;2.25;;;;;;;30.20;nan;100549.28;5011998;28;20041;-70
2022/08/04 09:44:07;;;;;;;4.10;2.90;;;;;;;30.22;nan;100562.53;5013580;28;20229;-70
2022/08/04 09:46:39;;;;;;;3.72;3.10;;;;;;;30.22;nan;100541.59;5009120;28;20294;-70
2022/08/04 09:49:26;;;;;;;3.40;2.67;;;;;;;30.27;nan;100548.69;5011070;28;20057;-69
2022/08/04 09:51:54;;;;;;;4.85;3.15;;;;;;;30.27;nan;100546.75;5009476;28;20040;-71
2022/08/04 09:54:27;;;;;;;4.50;2.72;;;;;;;30.32;nan;100548.41;5011886;28;20057;-70
2022/08/04 09:57:35;;;;;;;3.67;2.80;;;;;;;30.38;nan;100555.13;5010931;28;20451;-69
2022/08/04 10:00:08;;;;;;;3.08;2.40;;;;;;;30.45;nan;100601.47;5000580;28;20080;-72
2022/08/04 10:02:40;;;;;;;5.30;2.67;;;;;;;30.53;nan;100523.63;5010087;28;20115;-71
2022/08/04 10:05:15;;;;;;;2.70;2.50;;;;;;;30.60;nan;100580.84;5006432;28;20373;-69
2022/08/04 10:08:01;;;;;;;4.63;2.92;;;;;;;30.72;nan;100561.69;5012767;28;20030;-69
2022/08/04 10:10:44;;;;;;;2.55;2.35;;;;;;;30.77;nan;100549.75;5007827;28;20042;-70
2022/08/04 10:13:24;;;;;;;5.80;2.58;;;;;;;30.71;nan;100535.63;5011086;28;20056;-71
2022/08/04 10:16:11;;;;;;;2.65;2.45;;;;;;;30.76;nan;100558.25;5010200;28;20420;-68
2022/08/04 10:18:55;;;;;;;4.20;2.70;;;;;;;30.83;nan;100585.56;5010470;28;20034;-68
2022/08/04 10:21:34;;;;;;;3.63;2.63;;;;;;;30.83;nan;100547.50;5008192;28;20492;-71
2022/08/04 10:24:37;;;;;;;3.75;2.50;;;;;;;30.81;nan;100556.00;4996810;28;20068;-71
2022/08/04 10:27:16;;;;;;;6.38;2.83;;;;;;;30.72;nan;100530.97;5009337;28;20408;-71
2022/08/04 10:29:47;;;;;;;4.35;2.83;;;;;;;30.67;nan;100534.78;5011296;28;20380;-71
2022/08/04 10:32:19;;;;;;;4.72;2.47;;;;;;;30.77;nan;100540.78;5011570;28;20068;-72
2022/08/04 10:35:10;;;;;;;2.70;2.50;;;;;;;30.94;nan;100553.97;5008011;28;20484;-71
2022/08/04 10:37:48;;;;;;;6.07;2.60;;;;;;;31.02;nan;100563.06;4992060;28;20125;-70
2022/08/04 10:40:46;;;;;;;4.35;2.30;;;;;;;31.00;nan;100541.63;5011151;28;20030;-70
2022/08/04 10:43:24;;;;;;;4.07;2.60;;;;;;;30.98;nan;100543.94;5012567;28;20053;-70
2022/08/04 10:45:52;;;;;;;2.50;2.30;;;;;;;31.02;nan;100531.19;5009423;28;20061;-71
2022/08/04 10:48:23;;;;;;;4.30;2.67;;;;;;;31.06;nan;100537.50;5021218;28;20048;-70
2022/08/04 10:51:19;;;;;;;3.75;2.50;;;;;;;31.13;nan;100521.31;5024507;28;20035;-71
2022/08/04 10:53:48;;;;;;;2.90;2.60;;;;;;;31.27;nan;100514.50;5010573;28;20057;-70
2022/08/04 10:56:28;;;;;;;3.35;2.72;;;;;;;31.36;nan;100515.84;5009765;28;20121;-68
2022/08/04 10:59:01;;;;;;;4.82;2.58;;;;;;;31.45;nan;100517.59;5009828;28;20038;-70
2022/08/04 11:01:32;;;;;;;3.88;2.40;;;;;;;31.47;nan;100575.16;5012475;28;20037;-69
2022/08/04 11:04:04;;;;;;;3.67;2.80;;;;;;;31.40;nan;100521.41;5007385;28;20030;-69
2022/08/04 11:06:31;;;;;;;3.88;2.40;;;;;;;31.37;nan;100520.16;5008599;28;20058;-70
2022/08/04 11:08:59;;;;;;;4.78;2.72;;;;;;;31.33;nan;100510.34;5009206;28;20064;-69
2022/08/04 11:11:38;;;;;;;3.00;2.72;;;;;;;31.40;nan;100550.53;5006281;28;20026;-72
2022/08/04 11:14:11;;;;;;;3.28;2.80;;;;;;;31.55;nan;100517.75;5006605;28;20030;-67
2022/08/04 11:17:00;;;;;;;3.80;2.88;;;;;;;31.57;nan;100509.22;5004485;28;20143;-68
2022/08/04 11:19:34;;;;;;;3.60;2.85;;;;;;;31.66;nan;100485.25;5009238;28;20042;-67
2022/08/04 11:22:14;;;;;;;3.35;3.05;;;;;;;31.76;nan;100522.75;5008776;28;20044;-66
2022/08/04 11:24:48;;;;;;;4.55;2.60;;;;;;;31.82;nan;100516.97;4998490;28;20038;-67
2022/08/04 11:27:18;;;;;;;2.78;2.58;;;;;;;31.77;nan;100488.94;4992776;28;20124;-67
2022/08/04 11:29:58;;;;;;;3.58;2.85;;;;;;;31.77;nan;100518.88;5007400;28;20045;-67
2022/08/04 11:32:36;;;;;;;4.72;2.83;;;;;;;31.73;nan;100519.97;5012868;28;20049;-67
2022/08/04 11:35:06;;;;;;;2.88;2.67;;;;;;;31.58;nan;100495.25;5006842;28;20508;-69
2022/08/04 11:37:40;;;;;;;5.22;3.05;;;;;;;31.65;nan;100501.94;5008746;28;20030;-68
2022/08/04 11:40:15;;;;;;;5.03;2.70;;;;;;;31.60;nan;100500.31;5007501;28;20095;-71
2022/08/04 11:42:53;;;;;;;3.97;2.90;;;;;;;31.56;nan;100497.56;5002470;28;20121;-68
2022/08/04 11:45:36;;;;;;;5.72;2.88;;;;;;;31.60;nan;100483.97;5005157;28;20121;-67
2022/08/04 11:48:28;;;;;;;3.10;2.78;;;;;;;31.61;nan;100498.38;5001086;28;20113;-68
2022/08/04 11:50:55;;;;;;;4.75;2.95;;;;;;;31.55;nan;100487.81;5006385;28;20142;-67
2022/08/04 11:53:24;;;;;;;3.65;2.78;;;;;;;31.66;nan;100522.59;5003717;28;20037;-67
2022/08/04 11:55:56;;;;;;;3.63;2.47;;;;;;;31.80;nan;100468.34;5005145;28;20048;-67
2022/08/04 11:58:22;;;;;;;3.35;2.95;;;;;;;31.88;nan;100475.44;5000193;28;20025;-68
2022/08/04 12:00:59;;;;;;;3.25;2.70;;;;;;;32.02;nan;100474.13;5002358;28;20041;-67
2022/08/04 12:03:58;;;;;;;3.95;2.67;;;;;;;32.15;nan;100476.22;5003553;28;20173;-68
2022/08/04 12:06:42;;;;;;;4.10;2.53;;;;;;;32.24;nan;100486.84;5006661;28;20034;-71
2022/08/04 12:09:30;;;;;;;3.90;2.50;;;;;;;32.21;nan;100460.34;5008224;28;20030;-71
2022/08/04 12:12:06;;;;;;;4.55;2.72;;;;;;;32.15;nan;100478.16;5006381;28;20527;-68
2022/08/04 12:14:47;;;;;;;4.25;2.65;;;;;;;32.13;nan;100488.66;5002896;28;20041;-71
2022/08/04 12:17:20;;;;;;;3.05;2.78;;;;;;;32.08;nan;100486.25;5004050;28;20049;-71
2022/08/04 12:19:56;;;;;;;3.80;2.50;;;;;;;31.97;nan;100473.28;5001430;28;20045;-69
2022/08/04 12:22:26;;;;;;;4.80;3.25;;;;;;;31.98;nan;100458.50;5000840;28;20061;-72
2022/08/04 12:25:03;;;;;;;3.15;2.80;;;;;;;32.01;nan;100462.41;5005325;28;20038;-70
2022/08/04 12:27:38;;;;;;;5.28;4.75;;;;;;;32.10;nan;100486.66;5005030;28;20049;-71
2022/08/04 12:30:05;;;;;;;14.35;3.60;;;;;;;32.18;nan;100516.38;5006903;28;20045;-68